sensor_id;sensor_type;location;lat;lon;timestamp;P1;durP1;ratioP1;P2;durP2;ratioP2
63664;SDS011;49820;33.966;73.390;2022-10-31T00:01:37;18.63;;;11.60;;
63664;SDS011;49820;33.966;73.390;2022-10-31T00:04:06;21.50;;;11.85;;
63664;SDS011;49820;33.966;73.390;2022-10-31T00:06:36;21.33;;;11.70;;
63664;SDS011;49820;33.966;73.390;2022-10-31T00:09:05;22.35;;;11.80;;
63664;SDS011;49820;33.966;73.390;2022-10-31T00:11:34;19.77;;;10.48;;
63664;SDS011;49820;33.966;73.390;2022-10-31T00:14:03;17.08;;;9.98;;
63664;SDS011;49820;33.966;73.390;2022-10-31T00:16:32;13.50;;;9.10;;
63664;SDS011;49820;33.966;73.390;2022-10-31T00:19:02;17.73;;;9.95;;
63664;SDS011;49820;33.966;73.390;2022-10-31T00:21:34;16.50;;;9.77;;
63664;SDS011;49820;33.966;73.390;2022-10-31T00:24:03;19.20;;;10.73;;
63664;SDS011;49820;33.966;73.390;2022-10-31T00:26:32;18.30;;;10.63;;
63664;SDS011;49820;33.966;73.390;2022-10-31T00:29:02;17.15;;;11.25;;
63664;SDS011;49820;33.966;73.390;2022-10-31T00:31:32;18.33;;;11.20;;
63664;SDS011;49820;33.966;73.390;2022-10-31T00:34:00;19.83;;;10.93;;
63664;SDS011;49820;33.966;73.390;2022-10-31T00:36:31;20.20;;;11.70;;
63664;SDS011;49820;33.966;73.390;2022-10-31T00:39:00;18.50;;;12.38;;
63664;SDS011;49820;33.966;73.390;2022-10-31T00:41:29;19.67;;;12.27;;
63664;SDS011;49820;33.966;73.390;2022-10-31T00:43:58;22.85;;;11.90;;
63664;SDS011;49820;33.966;73.390;2022-10-31T00:46:27;22.40;;;12.57;;
63664;SDS011;49820;33.966;73.390;2022-10-31T00:48:56;21.60;;;12.30;;
63664;SDS011;49820;33.966;73.390;2022-10-31T00:51:25;23.17;;;13.13;;
63664;SDS011;49820;33.966;73.390;2022-10-31T00:53:54;20.58;;;12.02;;
63664;SDS011;49820;33.966;73.390;2022-10-31T00:56:24;21.63;;;12.82;;
63664;SDS011;49820;33.966;73.390;2022-10-31T00:58:53;18.63;;;12.00;;
63664;SDS011;49820;33.966;73.390;2022-10-31T01:01:22;16.90;;;11.23;;
63664;SDS011;49820;33.966;73.390;2022-10-31T01:03:51;17.55;;;10.90;;
63664;SDS011;49820;33.966;73.390;2022-10-31T01:06:20;16.17;;;9.67;;
63664;SDS011;49820;33.966;73.390;2022-10-31T01:08:49;16.37;;;9.27;;
63664;SDS011;49820;33.966;73.390;2022-10-31T01:11:19;16.30;;;9.35;;
63664;SDS011;49820;33.966;73.390;2022-10-31T01:13:51;13.60;;;7.55;;
63664;SDS011;49820;33.966;73.390;2022-10-31T01:16:22;15.47;;;9.03;;
63664;SDS011;49820;33.966;73.390;2022-10-31T01:18:53;16.55;;;8.80;;
63664;SDS011;49820;33.966;73.390;2022-10-31T01:21:23;15.85;;;9.15;;
63664;SDS011;49820;33.966;73.390;2022-10-31T01:23:57;18.40;;;10.70;;
63664;SDS011;49820;33.966;73.390;2022-10-31T01:26:27;18.35;;;10.77;;
63664;SDS011;49820;33.966;73.390;2022-10-31T01:29:05;16.23;;;9.93;;
63664;SDS011;49820;33.966;73.390;2022-10-31T01:31:36;21.63;;;11.25;;
63664;SDS011;49820;33.966;73.390;2022-10-31T01:34:08;18.00;;;11.20;;
63664;SDS011;49820;33.966;73.390;2022-10-31T01:36:42;19.17;;;10.93;;
63664;SDS011;49820;33.966;73.390;2022-10-31T01:39:14;23.75;;;12.27;;
63664;SDS011;49820;33.966;73.390;2022-10-31T01:41:45;23.43;;;11.97;;
63664;SDS011;49820;33.966;73.390;2022-10-31T01:47:29;21.38;;;11.63;;
63664;SDS011;49820;33.966;73.390;2022-10-31T01:49:48;19.15;;;11.88;;
63664;SDS011;49820;33.966;73.390;2022-10-31T01:52:25;25.75;;;12.57;;
63664;SDS011;49820;33.966;73.390;2022-10-31T01:55:06;25.27;;;13.80;;
63664;SDS011;49820;33.966;73.390;2022-10-31T01:57:46;27.40;;;14.40;;
63664;SDS011;49820;33.966;73.390;2022-10-31T02:00:19;22.35;;;12.43;;
63664;SDS011;49820;33.966;73.390;2022-10-31T02:02:49;20.73;;;11.25;;
63664;SDS011;49820;33.966;73.390;2022-10-31T02:05:20;22.55;;;11.60;;
63664;SDS011;49820;33.966;73.390;2022-10-31T02:08:06;20.15;;;11.20;;
63664;SDS011;49820;33.966;73.390;2022-10-31T02:10:48;20.13;;;11.52;;
63664;SDS011;49820;33.966;73.390;2022-10-31T02:13:17;21.27;;;11.30;;
63664;SDS011;49820;33.966;73.390;2022-10-31T02:15:49;20.50;;;11.27;;
63664;SDS011;49820;33.966;73.390;2022-10-31T02:18:21;24.20;;;11.60;;
63664;SDS011;49820;33.966;73.390;2022-10-31T02:26:58;17.85;;;11.10;;
63664;SDS011;49820;33.966;73.390;2022-10-31T02:29:40;22.35;;;12.60;;
63664;SDS011;49820;33.966;73.390;2022-10-31T02:32:19;20.00;;;11.73;;
63664;SDS011;49820;33.966;73.390;2022-10-31T02:35:13;15.73;;;9.82;;
63664;SDS011;49820;33.966;73.390;2022-10-31T02:41:39;15.27;;;8.50;;
63664;SDS011;49820;33.966;73.390;2022-10-31T02:50:16;16.38;;;10.23;;
63664;SDS011;49820;33.966;73.390;2022-10-31T02:52:50;16.80;;;11.00;;
63664;SDS011;49820;33.966;73.390;2022-10-31T02:58:11;17.17;;;10.20;;
63664;SDS011;49820;33.966;73.390;2022-10-31T03:00:50;17.88;;;10.48;;
63664;SDS011;49820;33.966;73.390;2022-10-31T03:09:41;20.65;;;10.38;;
63664;SDS011;49820;33.966;73.390;2022-10-31T03:17:38;23.50;;;11.50;;
63664;SDS011;49820;33.966;73.390;2022-10-31T03:23:41;19.60;;;11.50;;
63664;SDS011;49820;33.966;73.390;2022-10-31T03:26:19;21.40;;;11.40;;
63664;SDS011;49820;33.966;73.390;2022-10-31T03:28:50;18.05;;;12.45;;
63664;SDS011;49820;33.966;73.390;2022-10-31T03:31:23;17.40;;;11.55;;
63664;SDS011;49820;33.966;73.390;2022-10-31T03:34:13;20.33;;;12.53;;
63664;SDS011;49820;33.966;73.390;2022-10-31T03:36:47;24.05;;;13.75;;
63664;SDS011;49820;33.966;73.390;2022-10-31T03:39:21;25.05;;;14.50;;
63664;SDS011;49820;33.966;73.390;2022-10-31T03:41:53;24.35;;;15.18;;
63664;SDS011;49820;33.966;73.390;2022-10-31T03:44:28;25.88;;;14.73;;
63664;SDS011;49820;33.966;73.390;2022-10-31T03:47:01;28.58;;;15.30;;
63664;SDS011;49820;33.966;73.390;2022-10-31T03:49:33;29.45;;;15.00;;
63664;SDS011;49820;33.966;73.390;2022-10-31T03:52:26;25.85;;;15.20;;
63664;SDS011;49820;33.966;73.390;2022-10-31T03:55:13;25.15;;;16.45;;
63664;SDS011;49820;33.966;73.390;2022-10-31T03:58:02;25.40;;;14.40;;
63664;SDS011;49820;33.966;73.390;2022-10-31T04:00:38;23.17;;;13.90;;
63664;SDS011;49820;33.966;73.390;2022-10-31T04:03:14;24.33;;;13.65;;
63664;SDS011;49820;33.966;73.390;2022-10-31T04:05:49;29.33;;;14.50;;
63664;SDS011;49820;33.966;73.390;2022-10-31T04:08:23;25.80;;;15.45;;
63664;SDS011;49820;33.966;73.390;2022-10-31T04:10:56;26.98;;;14.55;;
63664;SDS011;49820;33.966;73.390;2022-10-31T04:13:29;24.70;;;14.95;;
63664;SDS011;49820;33.966;73.390;2022-10-31T04:16:11;26.52;;;15.05;;
63664;SDS011;49820;33.966;73.390;2022-10-31T04:18:44;25.42;;;16.00;;
63664;SDS011;49820;33.966;73.390;2022-10-31T04:21:13;28.42;;;17.35;;
63664;SDS011;49820;33.966;73.390;2022-10-31T04:23:42;25.15;;;15.50;;
63664;SDS011;49820;33.966;73.390;2022-10-31T04:26:24;35.30;;;17.08;;
63664;SDS011;49820;33.966;73.390;2022-10-31T04:28:53;23.80;;;16.35;;
63664;SDS011;49820;33.966;73.390;2022-10-31T04:31:22;13.80;;;8.27;;
63664;SDS011;49820;33.966;73.390;2022-10-31T04:33:52;16.17;;;8.38;;
63664;SDS011;49820;33.966;73.390;2022-10-31T04:36:21;11.95;;;8.05;;
63664;SDS011;49820;33.966;73.390;2022-10-31T04:38:50;16.00;;;9.63;;
63664;SDS011;49820;33.966;73.390;2022-10-31T04:41:38;16.73;;;9.68;;
63664;SDS011;49820;33.966;73.390;2022-10-31T04:44:12;16.92;;;9.93;;
63664;SDS011;49820;33.966;73.390;2022-10-31T04:46:42;14.52;;;9.05;;
63664;SDS011;49820;33.966;73.390;2022-10-31T04:49:11;15.82;;;9.55;;
63664;SDS011;49820;33.966;73.390;2022-10-31T04:51:40;30.10;;;18.27;;
63664;SDS011;49820;33.966;73.390;2022-10-31T04:54:09;28.27;;;17.17;;
63664;SDS011;49820;33.966;73.390;2022-10-31T04:56:57;26.67;;;17.27;;
63664;SDS011;49820;33.966;73.390;2022-10-31T04:59:27;26.58;;;17.65;;
63664;SDS011;49820;33.966;73.390;2022-10-31T05:01:58;31.88;;;18.45;;
63664;SDS011;49820;33.966;73.390;2022-10-31T05:04:43;27.00;;;16.63;;
63664;SDS011;49820;33.966;73.390;2022-10-31T05:07:13;26.20;;;16.73;;
63664;SDS011;49820;33.966;73.390;2022-10-31T05:09:42;30.37;;;18.23;;
63664;SDS011;49820;33.966;73.390;2022-10-31T05:12:13;30.58;;;18.95;;
63664;SDS011;49820;33.966;73.390;2022-10-31T05:15:01;32.45;;;18.30;;
63664;SDS011;49820;33.966;73.390;2022-10-31T05:17:49;30.92;;;19.15;;
63664;SDS011;49820;33.966;73.390;2022-10-31T05:20:48;35.45;;;20.63;;
63664;SDS011;49820;33.966;73.390;2022-10-31T05:23:40;34.63;;;19.58;;
63664;SDS011;49820;33.966;73.390;2022-10-31T05:26:15;36.15;;;18.42;;
63664;SDS011;49820;33.966;73.390;2022-10-31T05:28:45;31.45;;;18.05;;
63664;SDS011;49820;33.966;73.390;2022-10-31T05:31:15;32.75;;;19.27;;
63664;SDS011;49820;33.966;73.390;2022-10-31T05:33:45;33.65;;;19.23;;
63664;SDS011;49820;33.966;73.390;2022-10-31T05:36:45;31.05;;;20.10;;
63664;SDS011;49820;33.966;73.390;2022-10-31T05:39:16;31.35;;;19.83;;
63664;SDS011;49820;33.966;73.390;2022-10-31T05:41:48;37.17;;;21.48;;
63664;SDS011;49820;33.966;73.390;2022-10-31T05:44:21;32.85;;;21.23;;
63664;SDS011;49820;33.966;73.390;2022-10-31T05:47:18;36.80;;;20.98;;
63664;SDS011;49820;33.966;73.390;2022-10-31T05:50:26;33.80;;;21.45;;
63664;SDS011;49820;33.966;73.390;2022-10-31T05:53:07;47.38;;;29.23;;
63664;SDS011;49820;33.966;73.390;2022-10-31T05:55:37;84.30;;;41.15;;
63664;SDS011;49820;33.966;73.390;2022-10-31T05:58:12;41.40;;;24.48;;
63664;SDS011;49820;33.966;73.390;2022-10-31T06:01:01;31.93;;;18.70;;
63664;SDS011;49820;33.966;73.390;2022-10-31T06:03:31;32.10;;;19.90;;
63664;SDS011;49820;33.966;73.390;2022-10-31T06:06:02;35.92;;;21.08;;
63664;SDS011;49820;33.966;73.390;2022-10-31T06:08:37;33.58;;;21.08;;
63664;SDS011;49820;33.966;73.390;2022-10-31T06:11:13;25.67;;;18.17;;
63664;SDS011;49820;33.966;73.390;2022-10-31T06:14:08;28.23;;;17.95;;
63664;SDS011;49820;33.966;73.390;2022-10-31T06:16:57;30.40;;;19.73;;
63664;SDS011;49820;33.966;73.390;2022-10-31T06:19:59;27.67;;;18.90;;
63664;SDS011;49820;33.966;73.390;2022-10-31T06:22:30;30.60;;;19.23;;
63664;SDS011;49820;33.966;73.390;2022-10-31T06:24:59;25.33;;;16.70;;
63664;SDS011;49820;33.966;73.390;2022-10-31T06:27:32;18.38;;;12.05;;
63664;SDS011;49820;33.966;73.390;2022-10-31T06:30:09;17.90;;;11.10;;
63664;SDS011;49820;33.966;73.390;2022-10-31T06:32:39;22.42;;;13.75;;
63664;SDS011;49820;33.966;73.390;2022-10-31T06:35:09;28.38;;;18.75;;
63664;SDS011;49820;33.966;73.390;2022-10-31T06:37:40;26.27;;;17.08;;
63664;SDS011;49820;33.966;73.390;2022-10-31T06:40:28;27.03;;;18.17;;
63664;SDS011;49820;33.966;73.390;2022-10-31T06:43:21;34.53;;;19.80;;
63664;SDS011;49820;33.966;73.390;2022-10-31T06:46:04;32.83;;;18.13;;
63664;SDS011;49820;33.966;73.390;2022-10-31T06:48:41;29.73;;;18.05;;
63664;SDS011;49820;33.966;73.390;2022-10-31T06:51:33;29.53;;;19.40;;
63664;SDS011;49820;33.966;73.390;2022-10-31T06:54:02;26.00;;;19.00;;
63664;SDS011;49820;33.966;73.390;2022-10-31T06:56:32;28.38;;;17.73;;
63664;SDS011;49820;33.966;73.390;2022-10-31T06:59:01;31.48;;;20.88;;
63664;SDS011;49820;33.966;73.390;2022-10-31T07:01:50;34.72;;;21.48;;
63664;SDS011;49820;33.966;73.390;2022-10-31T07:04:19;34.03;;;21.67;;
63664;SDS011;49820;33.966;73.390;2022-10-31T07:06:50;32.07;;;21.27;;
63664;SDS011;49820;33.966;73.390;2022-10-31T07:09:21;37.33;;;22.63;;
63664;SDS011;49820;33.966;73.390;2022-10-31T07:11:51;33.45;;;21.17;;
63664;SDS011;49820;33.966;73.390;2022-10-31T07:14:21;31.45;;;21.08;;
63664;SDS011;49820;33.966;73.390;2022-10-31T07:16:52;32.92;;;21.30;;
63664;SDS011;49820;33.966;73.390;2022-10-31T07:19:27;31.70;;;21.15;;
63664;SDS011;49820;33.966;73.390;2022-10-31T07:21:56;33.38;;;21.92;;
63664;SDS011;49820;33.966;73.390;2022-10-31T07:24:27;30.67;;;21.15;;
63664;SDS011;49820;33.966;73.390;2022-10-31T07:26:58;35.25;;;21.90;;
63664;SDS011;49820;33.966;73.390;2022-10-31T07:29:27;34.72;;;22.15;;
63664;SDS011;49820;33.966;73.390;2022-10-31T07:31:58;34.88;;;22.05;;
63664;SDS011;49820;33.966;73.390;2022-10-31T07:34:29;32.58;;;23.05;;
63664;SDS011;49820;33.966;73.390;2022-10-31T07:37:17;37.95;;;24.10;;
63664;SDS011;49820;33.966;73.390;2022-10-31T07:39:47;35.28;;;22.95;;
63664;SDS011;49820;33.966;73.390;2022-10-31T07:42:16;35.75;;;23.48;;
63664;SDS011;49820;33.966;73.390;2022-10-31T07:44:45;32.45;;;22.00;;
63664;SDS011;49820;33.966;73.390;2022-10-31T07:47:51;34.90;;;24.67;;
63664;SDS011;49820;33.966;73.390;2022-10-31T07:50:39;35.05;;;22.88;;
63664;SDS011;49820;33.966;73.390;2022-10-31T07:53:40;34.17;;;23.63;;
63664;SDS011;49820;33.966;73.390;2022-10-31T07:56:15;34.55;;;22.42;;
63664;SDS011;49820;33.966;73.390;2022-10-31T07:58:45;31.55;;;22.95;;
63664;SDS011;49820;33.966;73.390;2022-10-31T08:01:14;34.15;;;23.65;;
63664;SDS011;49820;33.966;73.390;2022-10-31T08:03:54;35.55;;;23.50;;
63664;SDS011;49820;33.966;73.390;2022-10-31T08:06:41;32.15;;;22.23;;
63664;SDS011;49820;33.966;73.390;2022-10-31T08:09:23;34.95;;;23.50;;
63664;SDS011;49820;33.966;73.390;2022-10-31T08:11:55;33.78;;;22.52;;
63664;SDS011;49820;33.966;73.390;2022-10-31T08:14:25;33.67;;;24.00;;
63664;SDS011;49820;33.966;73.390;2022-10-31T08:16:55;35.80;;;23.63;;
63664;SDS011;49820;33.966;73.390;2022-10-31T08:19:32;37.13;;;23.48;;
63664;SDS011;49820;33.966;73.390;2022-10-31T08:22:01;32.25;;;22.27;;
63664;SDS011;49820;33.966;73.390;2022-10-31T08:24:30;32.50;;;23.07;;
63664;SDS011;49820;33.966;73.390;2022-10-31T08:27:00;35.60;;;22.70;;
63664;SDS011;49820;33.966;73.390;2022-10-31T08:29:32;35.42;;;23.65;;
63664;SDS011;49820;33.966;73.390;2022-10-31T08:32:01;29.90;;;22.63;;
63664;SDS011;49820;33.966;73.390;2022-10-31T08:34:48;37.33;;;22.63;;
63664;SDS011;49820;33.966;73.390;2022-10-31T08:37:35;29.83;;;22.52;;
63664;SDS011;49820;33.966;73.390;2022-10-31T08:40:05;33.33;;;22.80;;
63664;SDS011;49820;33.966;73.390;2022-10-31T08:42:35;32.63;;;22.73;;
63664;SDS011;49820;33.966;73.390;2022-10-31T08:45:05;33.25;;;22.17;;
63664;SDS011;49820;33.966;73.390;2022-10-31T08:47:35;29.58;;;21.33;;
63664;SDS011;49820;33.966;73.390;2022-10-31T08:50:04;32.08;;;21.38;;
63664;SDS011;49820;33.966;73.390;2022-10-31T08:52:34;29.65;;;19.95;;
63664;SDS011;49820;33.966;73.390;2022-10-31T08:55:25;32.88;;;20.30;;
63664;SDS011;49820;33.966;73.390;2022-10-31T08:58:05;31.00;;;20.55;;
63664;SDS011;49820;33.966;73.390;2022-10-31T09:00:42;32.53;;;20.47;;
63664;SDS011;49820;33.966;73.390;2022-10-31T09:03:18;29.27;;;21.58;;
63664;SDS011;49820;33.966;73.390;2022-10-31T09:05:59;32.77;;;20.50;;
63664;SDS011;49820;33.966;73.390;2022-10-31T09:08:32;32.07;;;21.37;;
63664;SDS011;49820;33.966;73.390;2022-10-31T09:11:01;31.30;;;21.60;;
63664;SDS011;49820;33.966;73.390;2022-10-31T09:13:54;33.60;;;21.33;;
63664;SDS011;49820;33.966;73.390;2022-10-31T09:16:38;31.73;;;20.88;;
63664;SDS011;49820;33.966;73.390;2022-10-31T09:19:14;28.17;;;20.30;;
63664;SDS011;49820;33.966;73.390;2022-10-31T09:21:46;30.27;;;21.13;;
63664;SDS011;49820;33.966;73.390;2022-10-31T09:24:15;35.33;;;21.75;;
63664;SDS011;49820;33.966;73.390;2022-10-31T09:26:44;31.03;;;20.80;;
63664;SDS011;49820;33.966;73.390;2022-10-31T09:29:16;26.63;;;20.27;;
63664;SDS011;49820;33.966;73.390;2022-10-31T09:31:53;27.38;;;19.63;;
63664;SDS011;49820;33.966;73.390;2022-10-31T09:34:29;29.00;;;20.77;;
63664;SDS011;49820;33.966;73.390;2022-10-31T09:37:18;36.03;;;22.52;;
63664;SDS011;49820;33.966;73.390;2022-10-31T09:39:47;32.92;;;22.33;;
63664;SDS011;49820;33.966;73.390;2022-10-31T09:45:16;33.33;;;22.48;;
63664;SDS011;49820;33.966;73.390;2022-10-31T09:51:07;31.30;;;20.83;;
63664;SDS011;49820;33.966;73.390;2022-10-31T09:54:06;34.28;;;21.55;;
63664;SDS011;49820;33.966;73.390;2022-10-31T09:57:00;30.73;;;20.05;;
63664;SDS011;49820;33.966;73.390;2022-10-31T09:59:35;28.30;;;19.08;;
63664;SDS011;49820;33.966;73.390;2022-10-31T10:02:27;31.13;;;19.20;;
63664;SDS011;49820;33.966;73.390;2022-10-31T10:05:19;29.13;;;19.75;;
63664;SDS011;49820;33.966;73.390;2022-10-31T10:08:10;35.67;;;18.25;;
63664;SDS011;49820;33.966;73.390;2022-10-31T10:14:18;26.53;;;17.27;;
63664;SDS011;49820;33.966;73.390;2022-10-31T10:17:07;29.25;;;18.08;;
63664;SDS011;49820;33.966;73.390;2022-10-31T10:19:42;27.60;;;18.23;;
63664;SDS011;49820;33.966;73.390;2022-10-31T10:22:23;25.52;;;17.60;;
63664;SDS011;49820;33.966;73.390;2022-10-31T10:25:19;29.70;;;18.45;;
63664;SDS011;49820;33.966;73.390;2022-10-31T10:36:04;27.83;;;17.40;;
63664;SDS011;49820;33.966;73.390;2022-10-31T10:41:51;26.02;;;18.00;;
63664;SDS011;49820;33.966;73.390;2022-10-31T10:44:40;29.38;;;17.58;;
63664;SDS011;49820;33.966;73.390;2022-10-31T10:47:36;27.83;;;18.37;;
63664;SDS011;49820;33.966;73.390;2022-10-31T10:55:42;30.10;;;17.98;;
63664;SDS011;49820;33.966;73.390;2022-10-31T10:58:12;26.85;;;17.17;;
63664;SDS011;49820;33.966;73.390;2022-10-31T11:00:42;28.67;;;17.08;;
63664;SDS011;49820;33.966;73.390;2022-10-31T11:03:14;31.90;;;18.10;;
63664;SDS011;49820;33.966;73.390;2022-10-31T11:05:55;30.40;;;18.15;;
63664;SDS011;49820;33.966;73.390;2022-10-31T11:08:34;25.88;;;17.20;;
63664;SDS011;49820;33.966;73.390;2022-10-31T11:13:36;30.15;;;18.83;;
63664;SDS011;49820;33.966;73.390;2022-10-31T11:16:10;31.65;;;18.15;;
63664;SDS011;49820;33.966;73.390;2022-10-31T11:19:16;30.90;;;18.02;;
63664;SDS011;49820;33.966;73.390;2022-10-31T11:21:48;31.60;;;20.43;;
63664;SDS011;49820;33.966;73.390;2022-10-31T11:24:24;34.17;;;20.88;;
63664;SDS011;49820;33.966;73.390;2022-10-31T11:27:07;32.33;;;21.02;;
63664;SDS011;49820;33.966;73.390;2022-10-31T11:29:51;33.17;;;20.60;;
63664;SDS011;49820;33.966;73.390;2022-10-31T11:32:26;36.90;;;21.88;;
63664;SDS011;49820;33.966;73.390;2022-10-31T11:34:58;34.28;;;21.45;;
63664;SDS011;49820;33.966;73.390;2022-10-31T11:37:32;37.33;;;23.55;;
63664;SDS011;49820;33.966;73.390;2022-10-31T11:40:05;39.58;;;23.20;;
63664;SDS011;49820;33.966;73.390;2022-10-31T11:42:37;39.25;;;23.05;;
63664;SDS011;49820;33.966;73.390;2022-10-31T11:45:18;38.45;;;23.17;;
63664;SDS011;49820;33.966;73.390;2022-10-31T11:48:02;35.97;;;21.33;;
63664;SDS011;49820;33.966;73.390;2022-10-31T11:50:47;39.28;;;23.17;;
63664;SDS011;49820;33.966;73.390;2022-10-31T11:53:28;51.42;;;31.63;;
63664;SDS011;49820;33.966;73.390;2022-10-31T11:56:05;50.95;;;33.17;;
63664;SDS011;49820;33.966;73.390;2022-10-31T11:58:40;52.55;;;33.45;;
63664;SDS011;49820;33.966;73.390;2022-10-31T12:01:26;59.88;;;37.20;;
63664;SDS011;49820;33.966;73.390;2022-10-31T12:04:07;63.90;;;39.93;;
63664;SDS011;49820;33.966;73.390;2022-10-31T12:06:41;64.97;;;40.27;;
63664;SDS011;49820;33.966;73.390;2022-10-31T12:15:06;63.80;;;39.67;;
63664;SDS011;49820;33.966;73.390;2022-10-31T12:26:31;55.38;;;36.63;;
63664;SDS011;49820;33.966;73.390;2022-10-31T12:29:06;60.60;;;36.80;;
63664;SDS011;49820;33.966;73.390;2022-10-31T12:34:59;56.42;;;35.83;;
63664;SDS011;49820;33.966;73.390;2022-10-31T12:40:57;56.78;;;37.10;;
63664;SDS011;49820;33.966;73.390;2022-10-31T12:49:39;55.40;;;35.60;;
63664;SDS011;49820;33.966;73.390;2022-10-31T12:57:44;66.63;;;38.13;;
63664;SDS011;49820;33.966;73.390;2022-10-31T13:00:17;47.47;;;31.40;;
63664;SDS011;49820;33.966;73.390;2022-10-31T13:10:43;24.60;;;14.97;;
63664;SDS011;49820;33.966;73.390;2022-10-31T13:16:04;20.27;;;12.35;;
63664;SDS011;49820;33.966;73.390;2022-10-31T13:21:23;22.20;;;12.55;;
63664;SDS011;49820;33.966;73.390;2022-10-31T13:24:04;20.02;;;12.18;;
63664;SDS011;49820;33.966;73.390;2022-10-31T13:29:32;23.00;;;12.38;;
63664;SDS011;49820;33.966;73.390;2022-10-31T13:32:04;22.52;;;13.05;;
63664;SDS011;49820;33.966;73.390;2022-10-31T13:35:10;23.30;;;13.65;;
63664;SDS011;49820;33.966;73.390;2022-10-31T13:37:37;26.85;;;14.55;;
63664;SDS011;49820;33.966;73.390;2022-10-31T13:43:30;29.00;;;15.18;;
63664;SDS011;49820;33.966;73.390;2022-10-31T13:45:52;26.67;;;15.07;;
63664;SDS011;49820;33.966;73.390;2022-10-31T13:50:58;25.70;;;15.07;;
63664;SDS011;49820;33.966;73.390;2022-10-31T13:53:40;26.20;;;15.00;;
63664;SDS011;49820;33.966;73.390;2022-10-31T13:56:32;25.15;;;16.00;;
63664;SDS011;49820;33.966;73.390;2022-10-31T14:01:36;28.05;;;16.65;;
63664;SDS011;49820;33.966;73.390;2022-10-31T14:09:30;33.05;;;18.15;;
63664;SDS011;49820;33.966;73.390;2022-10-31T14:12:10;27.67;;;16.13;;
63664;SDS011;49820;33.966;73.390;2022-10-31T14:14:58;29.83;;;17.50;;
63664;SDS011;49820;33.966;73.390;2022-10-31T14:18:21;30.73;;;18.80;;
63664;SDS011;49820;33.966;73.390;2022-10-31T14:28:55;30.65;;;19.40;;
63664;SDS011;49820;33.966;73.390;2022-10-31T14:31:29;33.70;;;19.67;;
63664;SDS011;49820;33.966;73.390;2022-10-31T14:49:04;34.63;;;20.93;;
63664;SDS011;49820;33.966;73.390;2022-10-31T14:51:58;37.25;;;20.52;;
63664;SDS011;49820;33.966;73.390;2022-10-31T14:54:31;31.58;;;20.10;;
63664;SDS011;49820;33.966;73.390;2022-10-31T14:57:13;45.38;;;21.73;;
63664;SDS011;49820;33.966;73.390;2022-10-31T14:59:50;34.38;;;21.10;;
63664;SDS011;49820;33.966;73.390;2022-10-31T15:02:34;35.03;;;20.73;;
63664;SDS011;49820;33.966;73.390;2022-10-31T15:05:27;33.97;;;20.02;;
63664;SDS011;49820;33.966;73.390;2022-10-31T15:07:58;33.17;;;19.70;;
63664;SDS011;49820;33.966;73.390;2022-10-31T15:10:28;33.57;;;20.17;;
63664;SDS011;49820;33.966;73.390;2022-10-31T15:15:58;34.67;;;20.25;;
63664;SDS011;49820;33.966;73.390;2022-10-31T15:18:27;32.28;;;19.67;;
63664;SDS011;49820;33.966;73.390;2022-10-31T15:20:57;33.70;;;20.17;;
63664;SDS011;49820;33.966;73.390;2022-10-31T15:23:27;32.65;;;19.13;;
63664;SDS011;49820;33.966;73.390;2022-10-31T15:25:58;31.07;;;18.87;;
63664;SDS011;49820;33.966;73.390;2022-10-31T15:28:32;27.63;;;18.80;;
63664;SDS011;49820;33.966;73.390;2022-10-31T15:31:02;32.47;;;19.42;;
63664;SDS011;49820;33.966;73.390;2022-10-31T15:33:32;32.60;;;20.15;;
63664;SDS011;49820;33.966;73.390;2022-10-31T15:36:24;33.45;;;20.00;;
63664;SDS011;49820;33.966;73.390;2022-10-31T15:38:57;34.22;;;20.00;;
63664;SDS011;49820;33.966;73.390;2022-10-31T15:41:28;31.05;;;19.15;;
63664;SDS011;49820;33.966;73.390;2022-10-31T15:44:10;30.45;;;19.13;;
63664;SDS011;49820;33.966;73.390;2022-10-31T15:46:43;33.40;;;20.73;;
63664;SDS011;49820;33.966;73.390;2022-10-31T15:52:09;32.50;;;21.10;;
63664;SDS011;49820;33.966;73.390;2022-10-31T15:54:54;36.00;;;21.00;;
63664;SDS011;49820;33.966;73.390;2022-10-31T15:57:30;34.03;;;21.25;;
63664;SDS011;49820;33.966;73.390;2022-10-31T16:00:00;40.88;;;23.23;;
63664;SDS011;49820;33.966;73.390;2022-10-31T16:02:31;36.05;;;21.67;;
63664;SDS011;49820;33.966;73.390;2022-10-31T16:05:00;34.47;;;21.25;;
63664;SDS011;49820;33.966;73.390;2022-10-31T16:07:31;30.63;;;20.30;;
63664;SDS011;49820;33.966;73.390;2022-10-31T16:10:04;34.72;;;18.98;;
63664;SDS011;49820;33.966;73.390;2022-10-31T16:12:37;33.10;;;19.17;;
63664;SDS011;49820;33.966;73.390;2022-10-31T16:15:14;31.95;;;19.13;;
63664;SDS011;49820;33.966;73.390;2022-10-31T16:17:47;38.45;;;18.85;;
63664;SDS011;49820;33.966;73.390;2022-10-31T16:20:32;31.20;;;19.42;;
63664;SDS011;49820;33.966;73.390;2022-10-31T16:23:11;30.08;;;18.58;;
63664;SDS011;49820;33.966;73.390;2022-10-31T16:25:46;34.90;;;19.73;;
63664;SDS011;49820;33.966;73.390;2022-10-31T16:28:18;32.03;;;20.38;;
63664;SDS011;49820;33.966;73.390;2022-10-31T16:30:55;36.80;;;20.42;;
63664;SDS011;49820;33.966;73.390;2022-10-31T16:39:02;30.70;;;16.60;;
63664;SDS011;49820;33.966;73.390;2022-10-31T16:41:31;27.03;;;15.33;;
63664;SDS011;49820;33.966;73.390;2022-10-31T16:44:06;22.77;;;12.93;;
63664;SDS011;49820;33.966;73.390;2022-10-31T16:46:46;26.75;;;14.93;;
63664;SDS011;49820;33.966;73.390;2022-10-31T16:49:16;24.38;;;13.75;;
63664;SDS011;49820;33.966;73.390;2022-10-31T16:51:46;27.00;;;14.95;;
63664;SDS011;49820;33.966;73.390;2022-10-31T16:54:15;24.45;;;16.15;;
63664;SDS011;49820;33.966;73.390;2022-10-31T16:56:44;25.25;;;15.40;;
63664;SDS011;49820;33.966;73.390;2022-10-31T16:59:13;24.33;;;15.73;;
63664;SDS011;49820;33.966;73.390;2022-10-31T17:01:42;27.35;;;15.75;;
63664;SDS011;49820;33.966;73.390;2022-10-31T17:04:16;27.25;;;15.60;;
63664;SDS011;49820;33.966;73.390;2022-10-31T17:06:45;27.80;;;15.50;;
63664;SDS011;49820;33.966;73.390;2022-10-31T17:09:14;30.05;;;16.23;;
63664;SDS011;49820;33.966;73.390;2022-10-31T17:11:46;27.10;;;16.63;;
63664;SDS011;49820;33.966;73.390;2022-10-31T17:14:18;31.75;;;17.75;;
63664;SDS011;49820;33.966;73.390;2022-10-31T17:16:47;29.48;;;17.45;;
63664;SDS011;49820;33.966;73.390;2022-10-31T17:19:16;26.88;;;17.27;;
63664;SDS011;49820;33.966;73.390;2022-10-31T17:21:45;28.48;;;17.08;;
63664;SDS011;49820;33.966;73.390;2022-10-31T17:24:14;30.77;;;17.83;;
63664;SDS011;49820;33.966;73.390;2022-10-31T17:26:43;30.57;;;17.80;;
63664;SDS011;49820;33.966;73.390;2022-10-31T17:29:12;30.55;;;17.50;;
63664;SDS011;49820;33.966;73.390;2022-10-31T17:31:42;27.87;;;16.70;;
63664;SDS011;49820;33.966;73.390;2022-10-31T17:34:11;26.45;;;14.95;;
63664;SDS011;49820;33.966;73.390;2022-10-31T17:36:40;24.75;;;14.40;;
63664;SDS011;49820;33.966;73.390;2022-10-31T17:39:09;24.90;;;13.98;;
63664;SDS011;49820;33.966;73.390;2022-10-31T17:41:38;24.42;;;13.88;;